Terminal Aerodrome Forecast
Issued by NWS

Home | Current Version | Previous Version | Graphics & Text | Print | Product List | Glossary Off
Versions: 1 2 3 4 5 6 7 8 9 10 11 12 13 14 15 16 17

065
FTUS43 KGRB 301138
TAFAUW
TAF
KAUW 301138Z 3012/0112 07010G15KT P6SM OVC050 WS020/10040KT
     FM301500 07014G24KT P6SM OVC035
     FM301900 07014G23KT P6SM -RA OVC024
     FM010000 07013G25KT 6SM RA OVC012 WS020/10045KT
     FM010900 10008G19KT 6SM RA OVC009 WS020/13045KT=

USA.gov is the U.S. government's official web portal to all federal, state and local government web resources and services.